createdAt,value
2022-10-05T00:02:02.571Z,100
2022-10-05T00:07:02.510Z,100
2022-10-05T00:12:02.537Z,100
2022-10-05T00:17:02.621Z,100
2022-10-05T00:22:02.497Z,100
2022-10-05T00:27:02.476Z,100
2022-10-05T00:32:02.559Z,100
2022-10-05T00:37:02.492Z,100
2022-10-05T00:42:02.475Z,100
2022-10-05T00:47:02.495Z,100
2022-10-05T00:52:02.474Z,100
2022-10-05T00:57:02.459Z,100
2022-10-05T01:02:02.532Z,100
2022-10-05T01:07:02.464Z,100
2022-10-05T01:12:02.461Z,100
2022-10-05T01:17:02.551Z,100
2022-10-05T01:22:02.447Z,100
2022-10-05T01:27:02.449Z,100
2022-10-05T01:32:02.433Z,100
2022-10-05T01:37:02.436Z,100
2022-10-05T01:42:02.431Z,100
2022-10-05T01:47:02.429Z,100
2022-10-05T01:52:02.441Z,100
2022-10-05T01:57:02.430Z,100
2022-10-05T02:02:02.493Z,100
2022-10-05T02:07:02.430Z,100
2022-10-05T02:12:02.417Z,100
2022-10-05T02:17:02.404Z,100
2022-10-05T02:22:02.406Z,100
2022-10-05T02:27:02.401Z,100
2022-10-05T02:32:02.399Z,100
2022-10-05T02:37:02.422Z,100
2022-10-05T02:42:02.393Z,100
2022-10-05T02:47:02.388Z,100
2022-10-05T02:52:02.383Z,100
2022-10-05T02:57:02.390Z,100
2022-10-05T03:02:02.418Z,100
2022-10-05T03:07:02.375Z,100
2022-10-05T03:12:02.361Z,100
2022-10-05T03:17:02.369Z,100
2022-10-05T03:22:02.350Z,100
2022-10-05T03:27:02.341Z,100
2022-10-05T03:32:02.355Z,100
2022-10-05T03:37:02.347Z,100
2022-10-05T03:42:02.343Z,100
2022-10-05T03:47:02.339Z,100
2022-10-05T03:52:02.338Z,100
2022-10-05T03:57:02.322Z,100
2022-10-05T04:02:02.331Z,100
2022-10-05T04:07:02.314Z,100
2022-10-05T04:12:02.380Z,100
2022-10-05T04:17:02.317Z,100
2022-10-05T04:22:02.309Z,100
2022-10-05T04:27:02.313Z,100
2022-10-05T04:32:02.314Z,100
2022-10-05T04:37:02.296Z,100
2022-10-05T04:42:02.313Z,100
2022-10-05T04:52:02.298Z,100
2022-10-05T04:57:02.293Z,100
2022-10-05T05:02:02.269Z,100
2022-10-05T05:07:02.287Z,100
2022-10-05T05:17:02.269Z,100
2022-10-05T05:27:02.270Z,100
2022-10-05T05:32:02.266Z,100
2022-10-05T05:37:02.252Z,100
2022-10-05T05:47:04.270Z,100
2022-10-05T06:12:02.221Z,100
2022-10-05T06:17:02.221Z,100
2022-10-05T06:22:02.214Z,100
2022-10-05T06:27:02.229Z,98.1
2022-10-05T06:32:02.239Z,95.7
2022-10-05T06:37:02.223Z,95
2022-10-05T06:42:02.191Z,94.5
2022-10-05T06:47:02.192Z,92.3
2022-10-05T06:52:02.189Z,91
2022-10-05T06:57:02.179Z,90.1
2022-10-05T07:02:02.287Z,89.6
2022-10-05T07:07:02.180Z,88.6
2022-10-05T07:12:05.028Z,87.7
2022-10-05T07:17:02.157Z,86.5
2022-10-05T07:22:02.197Z,86.2
2022-10-05T07:27:02.147Z,85.4
2022-10-05T07:32:02.132Z,84.9
2022-10-05T07:37:02.140Z,84.5
2022-10-05T07:42:02.130Z,82.9
2022-10-05T07:47:02.127Z,82.4
2022-10-05T07:52:02.126Z,83.8
2022-10-05T07:57:02.105Z,82.1
2022-10-05T08:02:02.224Z,81.9
2022-10-05T08:07:02.110Z,80.9
2022-10-05T08:12:02.097Z,80.8
2022-10-05T08:17:02.099Z,79.5
2022-10-05T08:22:02.101Z,79.2
2022-10-05T08:27:02.088Z,78.5
2022-10-05T08:32:02.079Z,77.8
2022-10-05T08:37:02.070Z,77.6
2022-10-05T08:42:02.055Z,77.4
2022-10-05T08:47:02.055Z,76.7
2022-10-05T08:52:02.059Z,75.6
2022-10-05T08:57:02.047Z,75.3
2022-10-05T09:02:02.051Z,75.5
2022-10-05T09:07:02.028Z,74.3
2022-10-05T09:12:02.052Z,73.7
2022-10-05T09:17:02.030Z,73.3
2022-10-05T09:22:02.030Z,73
2022-10-05T09:27:02.011Z,72.5
2022-10-05T09:32:01.998Z,71.3
2022-10-05T09:37:01.994Z,71.7
2022-10-05T09:42:01.991Z,70.3
2022-10-05T09:47:02.009Z,69.5
2022-10-05T09:52:01.989Z,70.5
2022-10-05T09:57:01.983Z,69.9
2022-10-05T10:02:02.020Z,69.5
2022-10-05T10:07:01.959Z,67.8
2022-10-05T10:12:01.965Z,68.3
2022-10-05T10:17:01.969Z,68.7
2022-10-05T10:22:01.950Z,67.6
2022-10-05T10:27:01.946Z,67.3
2022-10-05T10:32:01.954Z,66.7
2022-10-05T10:37:01.933Z,66.7
2022-10-05T10:42:01.929Z,66
2022-10-05T10:47:02.025Z,65.4
2022-10-05T10:52:01.920Z,65.9
2022-10-05T10:57:01.894Z,65.9
2022-10-05T11:02:01.964Z,65.2
2022-10-05T11:07:01.892Z,64.8
2022-10-05T11:12:01.878Z,65.1
2022-10-05T11:17:01.869Z,64.8
2022-10-05T11:22:01.859Z,64.6
2022-10-05T11:27:01.881Z,65.6
2022-10-05T11:32:01.869Z,65.3
2022-10-05T11:37:01.848Z,64.3
2022-10-05T11:42:01.848Z,63.8
2022-10-05T11:47:01.834Z,63.8
2022-10-05T11:57:02.260Z,65.7
2022-10-05T12:02:01.814Z,63.2
2022-10-05T12:07:01.826Z,63.8
2022-10-05T12:12:01.796Z,62
2022-10-05T12:17:01.791Z,63.3
2022-10-05T12:22:01.787Z,62.3
2022-10-05T12:27:01.795Z,63.6
2022-10-05T12:32:01.767Z,61.6
2022-10-05T12:37:04.337Z,62
2022-10-05T12:42:01.768Z,61.8
2022-10-05T13:02:01.842Z,61
2022-10-05T13:07:01.725Z,60.9
2022-10-05T13:12:01.721Z,61.3
2022-10-05T13:17:01.726Z,61.1
2022-10-05T13:22:01.706Z,61.3
2022-10-05T13:27:01.703Z,62.3
2022-10-05T13:32:01.710Z,62.5
2022-10-05T13:37:01.691Z,63
2022-10-05T13:42:01.676Z,63.9
2022-10-05T13:47:01.671Z,62.8
2022-10-05T13:52:01.704Z,63.1
2022-10-05T13:57:01.675Z,63.1
2022-10-05T14:02:01.695Z,64.7
2022-10-05T14:07:01.653Z,69.1
2022-10-05T14:12:01.636Z,68.1
2022-10-05T14:22:01.653Z,70.5
2022-10-05T14:27:01.622Z,70.3
2022-10-05T14:32:01.681Z,72.2
2022-10-05T14:37:01.600Z,72.9
2022-10-05T14:42:01.603Z,74.8
2022-10-05T14:47:01.599Z,77
2022-10-05T14:52:01.600Z,78.3
2022-10-05T14:57:01.595Z,79.8
2022-10-05T15:02:01.619Z,80.8
2022-10-05T15:07:04.034Z,81.1
2022-10-05T15:12:01.570Z,81.6
2022-10-05T15:17:01.612Z,82.2
2022-10-05T15:22:01.550Z,83
2022-10-05T15:27:01.560Z,83.4
2022-10-05T15:32:01.551Z,84.4
2022-10-05T15:37:01.544Z,85.2
2022-10-05T15:42:01.523Z,85.9
2022-10-05T15:47:01.533Z,86.5
2022-10-05T15:52:01.516Z,86.6
2022-10-05T15:57:01.498Z,86.9
2022-10-05T16:02:01.591Z,88
2022-10-05T16:07:01.481Z,87.7
2022-10-05T16:12:01.491Z,88.7
2022-10-05T16:17:01.570Z,89.8
2022-10-05T16:22:01.475Z,90.2
2022-10-05T16:27:01.485Z,90.4
2022-10-05T16:32:01.478Z,91.4
2022-10-05T16:37:01.483Z,91.6
2022-10-05T16:42:01.454Z,92.2
2022-10-05T16:47:01.437Z,93.2
2022-10-05T16:52:01.457Z,93.9
2022-10-05T16:57:01.460Z,94.2
2022-10-05T17:02:01.428Z,94.8
2022-10-05T17:07:01.430Z,95.6
2022-10-05T17:12:01.419Z,95.8
2022-10-05T17:17:01.421Z,96.5
2022-10-05T17:22:01.411Z,97
2022-10-05T17:27:01.397Z,97.4
2022-10-05T17:32:01.400Z,98.4
2022-10-05T17:37:01.406Z,99.2
2022-10-05T17:42:01.383Z,99
2022-10-05T17:47:01.385Z,99.4
2022-10-05T17:52:01.386Z,99.9
2022-10-05T17:57:01.355Z,100
2022-10-05T18:02:01.423Z,100
2022-10-05T18:07:01.354Z,100
2022-10-05T18:12:01.356Z,100
2022-10-05T18:17:01.355Z,100
2022-10-05T18:22:01.353Z,100
2022-10-05T18:27:01.335Z,100
2022-10-05T18:32:01.345Z,100
2022-10-05T18:37:01.334Z,100
2022-10-05T18:42:01.312Z,100
2022-10-05T18:47:01.312Z,100
2022-10-05T18:52:01.327Z,100
2022-10-05T18:57:01.313Z,100
2022-10-05T19:02:01.390Z,100
2022-10-05T19:07:01.292Z,100
2022-10-05T19:12:01.287Z,100
2022-10-05T19:17:01.287Z,100
2022-10-05T19:22:01.270Z,100
2022-10-05T19:32:01.264Z,98.4
2022-10-05T19:37:01.264Z,98.7
2022-10-05T19:42:01.256Z,99.5
2022-10-05T19:47:01.258Z,99.4
2022-10-05T20:12:01.227Z,100
2022-10-05T20:32:01.203Z,100
2022-10-05T20:37:01.189Z,100
2022-10-05T20:42:01.185Z,100
2022-10-05T20:47:01.304Z,100
2022-10-05T20:52:01.185Z,100
2022-10-05T20:57:01.170Z,100
2022-10-05T21:02:01.162Z,100
2022-10-05T21:07:01.167Z,100
2022-10-05T21:12:01.180Z,100
2022-10-05T21:17:01.154Z,100
2022-10-05T21:22:01.162Z,100
2022-10-05T21:27:01.158Z,100
2022-10-05T21:32:01.197Z,100
2022-10-05T21:37:01.145Z,100
2022-10-05T21:42:01.136Z,100
2022-10-05T21:47:01.132Z,100
2022-10-05T21:52:01.114Z,100
2022-10-05T21:57:01.135Z,100
2022-10-05T22:12:01.123Z,100
2022-10-05T22:17:01.087Z,100
2022-10-05T22:22:01.096Z,100
2022-10-05T22:27:01.090Z,100
2022-10-05T22:32:01.140Z,100
2022-10-05T22:37:01.074Z,100
2022-10-05T22:42:01.078Z,100
2022-10-05T22:47:01.077Z,100
2022-10-05T22:52:01.069Z,100
2022-10-05T22:57:01.057Z,100
2022-10-05T23:02:01.246Z,100
2022-10-05T23:07:01.063Z,100
2022-10-05T23:12:01.036Z,100
2022-10-05T23:17:01.073Z,100
2022-10-05T23:22:01.037Z,100
2022-10-05T23:27:01.034Z,100
2022-10-05T23:32:01.031Z,100
2022-10-05T23:37:01.031Z,100
2022-10-05T23:42:01.025Z,100
2022-10-05T23:47:01.026Z,100
2022-10-05T23:52:01.000Z,100
2022-10-05T23:57:01.012Z,100
